sensor_id;sensor_type;location;lat;lon;timestamp;P1;durP1;ratioP1;P2;durP2;ratioP2
78308;SDS011;67566;42.022;21.356;2023-07-29T00:01:50;14.50;;;8.88;;
78308;SDS011;67566;42.022;21.356;2023-07-29T00:04:16;12.45;;;8.80;;
78308;SDS011;67566;42.022;21.356;2023-07-29T00:06:42;9.95;;;7.95;;
78308;SDS011;67566;42.022;21.356;2023-07-29T00:09:07;12.80;;;8.02;;
78308;SDS011;67566;42.022;21.356;2023-07-29T00:11:33;11.68;;;7.80;;
78308;SDS011;67566;42.022;21.356;2023-07-29T00:13:59;8.38;;;6.00;;
78308;SDS011;67566;42.022;21.356;2023-07-29T00:16:26;9.35;;;6.95;;
78308;SDS011;67566;42.022;21.356;2023-07-29T00:18:53;12.50;;;8.85;;
78308;SDS011;67566;42.022;21.356;2023-07-29T00:21:19;16.00;;;11.40;;
78308;SDS011;67566;42.022;21.356;2023-07-29T00:23:45;28.45;;;20.13;;
78308;SDS011;67566;42.022;21.356;2023-07-29T00:26:10;24.02;;;16.83;;
78308;SDS011;67566;42.022;21.356;2023-07-29T00:28:36;15.00;;;11.48;;
78308;SDS011;67566;42.022;21.356;2023-07-29T00:31:02;13.50;;;9.65;;
78308;SDS011;67566;42.022;21.356;2023-07-29T00:33:27;12.50;;;9.60;;
78308;SDS011;67566;42.022;21.356;2023-07-29T00:35:53;14.73;;;10.05;;
78308;SDS011;67566;42.022;21.356;2023-07-29T00:38:18;12.80;;;7.72;;
78308;SDS011;67566;42.022;21.356;2023-07-29T00:40:44;10.30;;;6.82;;
78308;SDS011;67566;42.022;21.356;2023-07-29T00:43:09;9.57;;;7.00;;
78308;SDS011;67566;42.022;21.356;2023-07-29T00:45:35;9.23;;;5.82;;
78308;SDS011;67566;42.022;21.356;2023-07-29T00:48:01;7.88;;;5.65;;
78308;SDS011;67566;42.022;21.356;2023-07-29T00:50:28;7.35;;;5.43;;
78308;SDS011;67566;42.022;21.356;2023-07-29T00:52:56;10.70;;;5.97;;
78308;SDS011;67566;42.022;21.356;2023-07-29T00:55:22;7.10;;;5.90;;
78308;SDS011;67566;42.022;21.356;2023-07-29T00:57:48;12.68;;;6.40;;
78308;SDS011;67566;42.022;21.356;2023-07-29T01:00:16;12.07;;;7.30;;
78308;SDS011;67566;42.022;21.356;2023-07-29T01:02:42;12.18;;;6.97;;
78308;SDS011;67566;42.022;21.356;2023-07-29T01:05:08;12.65;;;7.38;;
78308;SDS011;67566;42.022;21.356;2023-07-29T01:16:26;8.40;;;5.07;;
78308;SDS011;67566;42.022;21.356;2023-07-29T01:18:57;8.00;;;4.97;;
78308;SDS011;67566;42.022;21.356;2023-07-29T01:21:29;8.35;;;4.97;;
78308;SDS011;67566;42.022;21.356;2023-07-29T01:23:58;6.40;;;4.85;;
78308;SDS011;67566;42.022;21.356;2023-07-29T01:26:24;8.13;;;5.45;;
78308;SDS011;67566;42.022;21.356;2023-07-29T01:28:50;6.88;;;4.95;;
78308;SDS011;67566;42.022;21.356;2023-07-29T01:31:16;12.30;;;6.10;;
78308;SDS011;67566;42.022;21.356;2023-07-29T01:33:53;7.13;;;5.30;;
78308;SDS011;67566;42.022;21.356;2023-07-29T01:36:25;6.78;;;5.25;;
78308;SDS011;67566;42.022;21.356;2023-07-29T01:38:54;8.32;;;5.70;;
78308;SDS011;67566;42.022;21.356;2023-07-29T01:41:23;8.60;;;6.43;;
78308;SDS011;67566;42.022;21.356;2023-07-29T01:43:49;8.48;;;6.57;;
78308;SDS011;67566;42.022;21.356;2023-07-29T01:46:17;9.05;;;5.60;;
78308;SDS011;67566;42.022;21.356;2023-07-29T01:48:42;7.40;;;6.25;;
78308;SDS011;67566;42.022;21.356;2023-07-29T01:51:08;10.73;;;6.45;;
78308;SDS011;67566;42.022;21.356;2023-07-29T01:53:37;9.32;;;6.18;;
78308;SDS011;67566;42.022;21.356;2023-07-29T01:56:02;10.82;;;5.57;;
78308;SDS011;67566;42.022;21.356;2023-07-29T01:58:28;9.10;;;5.60;;
78308;SDS011;67566;42.022;21.356;2023-07-29T02:00:53;8.23;;;5.65;;
78308;SDS011;67566;42.022;21.356;2023-07-29T02:03:19;7.13;;;5.85;;
78308;SDS011;67566;42.022;21.356;2023-07-29T02:05:44;7.20;;;5.82;;
78308;SDS011;67566;42.022;21.356;2023-07-29T02:08:10;9.20;;;5.40;;
78308;SDS011;67566;42.022;21.356;2023-07-29T02:10:35;7.55;;;5.63;;
78308;SDS011;67566;42.022;21.356;2023-07-29T02:13:01;8.35;;;5.55;;
78308;SDS011;67566;42.022;21.356;2023-07-29T02:15:27;7.57;;;4.60;;
78308;SDS011;67566;42.022;21.356;2023-07-29T02:17:53;7.80;;;5.45;;
78308;SDS011;67566;42.022;21.356;2023-07-29T02:20:18;7.32;;;4.80;;
78308;SDS011;67566;42.022;21.356;2023-07-29T02:22:44;7.80;;;5.28;;
78308;SDS011;67566;42.022;21.356;2023-07-29T02:25:10;7.45;;;5.28;;
78308;SDS011;67566;42.022;21.356;2023-07-29T02:27:38;7.00;;;5.70;;
78308;SDS011;67566;42.022;21.356;2023-07-29T02:32:48;7.53;;;5.28;;
78308;SDS011;67566;42.022;21.356;2023-07-29T02:35:14;6.78;;;4.82;;
78308;SDS011;67566;42.022;21.356;2023-07-29T02:37:39;9.48;;;5.95;;
78308;SDS011;67566;42.022;21.356;2023-07-29T02:40:05;6.63;;;5.13;;
78308;SDS011;67566;42.022;21.356;2023-07-29T02:42:31;9.63;;;5.95;;
78308;SDS011;67566;42.022;21.356;2023-07-29T02:44:56;13.32;;;6.75;;
78308;SDS011;67566;42.022;21.356;2023-07-29T02:47:22;8.07;;;6.03;;
78308;SDS011;67566;42.022;21.356;2023-07-29T02:49:47;9.10;;;6.70;;
78308;SDS011;67566;42.022;21.356;2023-07-29T02:52:13;10.68;;;6.63;;
78308;SDS011;67566;42.022;21.356;2023-07-29T02:54:38;9.52;;;6.00;;
78308;SDS011;67566;42.022;21.356;2023-07-29T02:57:04;8.27;;;5.57;;
78308;SDS011;67566;42.022;21.356;2023-07-29T02:59:29;10.02;;;6.45;;
78308;SDS011;67566;42.022;21.356;2023-07-29T03:01:55;9.13;;;5.93;;
78308;SDS011;67566;42.022;21.356;2023-07-29T03:04:20;10.10;;;6.03;;
78308;SDS011;67566;42.022;21.356;2023-07-29T03:06:46;11.32;;;6.55;;
78308;SDS011;67566;42.022;21.356;2023-07-29T03:09:13;9.15;;;5.95;;
78308;SDS011;67566;42.022;21.356;2023-07-29T03:11:39;8.50;;;6.72;;
78308;SDS011;67566;42.022;21.356;2023-07-29T03:14:07;10.55;;;6.22;;
78308;SDS011;67566;42.022;21.356;2023-07-29T03:16:32;10.70;;;5.78;;
78308;SDS011;67566;42.022;21.356;2023-07-29T03:18:58;7.97;;;6.07;;
78308;SDS011;67566;42.022;21.356;2023-07-29T03:21:25;9.60;;;5.30;;
78308;SDS011;67566;42.022;21.356;2023-07-29T03:23:51;6.28;;;5.32;;
78308;SDS011;67566;42.022;21.356;2023-07-29T03:26:16;7.75;;;5.30;;
78308;SDS011;67566;42.022;21.356;2023-07-29T03:28:42;7.53;;;4.90;;
78308;SDS011;67566;42.022;21.356;2023-07-29T03:31:30;6.95;;;5.45;;
78308;SDS011;67566;42.022;21.356;2023-07-29T03:33:55;7.88;;;5.53;;
78308;SDS011;67566;42.022;21.356;2023-07-29T03:36:21;6.07;;;4.72;;
78308;SDS011;67566;42.022;21.356;2023-07-29T03:38:46;8.68;;;5.50;;
78308;SDS011;67566;42.022;21.356;2023-07-29T03:41:12;7.18;;;5.13;;
78308;SDS011;67566;42.022;21.356;2023-07-29T03:43:37;8.45;;;4.60;;
78308;SDS011;67566;42.022;21.356;2023-07-29T03:46:03;8.63;;;5.15;;
78308;SDS011;67566;42.022;21.356;2023-07-29T03:48:28;7.40;;;5.53;;
78308;SDS011;67566;42.022;21.356;2023-07-29T03:50:54;6.63;;;4.70;;
78308;SDS011;67566;42.022;21.356;2023-07-29T03:53:19;8.70;;;5.25;;
78308;SDS011;67566;42.022;21.356;2023-07-29T03:55:45;7.38;;;5.28;;
78308;SDS011;67566;42.022;21.356;2023-07-29T03:58:11;10.00;;;5.78;;
78308;SDS011;67566;42.022;21.356;2023-07-29T04:00:37;7.85;;;5.47;;
78308;SDS011;67566;42.022;21.356;2023-07-29T04:03:02;9.88;;;6.55;;
78308;SDS011;67566;42.022;21.356;2023-07-29T04:05:28;12.95;;;6.43;;
78308;SDS011;67566;42.022;21.356;2023-07-29T04:07:53;9.27;;;6.30;;
78308;SDS011;67566;42.022;21.356;2023-07-29T04:10:19;8.20;;;6.18;;
78308;SDS011;67566;42.022;21.356;2023-07-29T04:12:44;11.40;;;6.45;;
78308;SDS011;67566;42.022;21.356;2023-07-29T04:15:10;15.77;;;10.23;;
78308;SDS011;67566;42.022;21.356;2023-07-29T04:17:35;16.45;;;11.70;;
78308;SDS011;67566;42.022;21.356;2023-07-29T04:20:01;15.27;;;10.65;;
78308;SDS011;67566;42.022;21.356;2023-07-29T04:22:27;14.90;;;9.38;;
78308;SDS011;67566;42.022;21.356;2023-07-29T04:24:53;19.17;;;11.38;;
78308;SDS011;67566;42.022;21.356;2023-07-29T04:27:18;17.73;;;11.45;;
78308;SDS011;67566;42.022;21.356;2023-07-29T04:29:44;16.80;;;10.50;;
78308;SDS011;67566;42.022;21.356;2023-07-29T04:32:10;14.75;;;9.20;;
78308;SDS011;67566;42.022;21.356;2023-07-29T04:34:35;13.00;;;8.57;;
78308;SDS011;67566;42.022;21.356;2023-07-29T04:37:00;12.70;;;8.70;;
78308;SDS011;67566;42.022;21.356;2023-07-29T04:39:26;19.73;;;8.88;;
78308;SDS011;67566;42.022;21.356;2023-07-29T04:41:51;14.85;;;9.25;;
78308;SDS011;67566;42.022;21.356;2023-07-29T04:44:17;14.40;;;8.50;;
78308;SDS011;67566;42.022;21.356;2023-07-29T04:46:42;11.18;;;8.45;;
78308;SDS011;67566;42.022;21.356;2023-07-29T04:49:08;12.40;;;8.57;;
78308;SDS011;67566;42.022;21.356;2023-07-29T04:51:34;10.63;;;7.75;;
78308;SDS011;67566;42.022;21.356;2023-07-29T04:53:59;10.98;;;7.75;;
78308;SDS011;67566;42.022;21.356;2023-07-29T04:56:25;12.27;;;7.57;;
78308;SDS011;67566;42.022;21.356;2023-07-29T04:58:50;10.73;;;7.60;;
78308;SDS011;67566;42.022;21.356;2023-07-29T05:01:16;11.52;;;7.03;;
78308;SDS011;67566;42.022;21.356;2023-07-29T05:03:41;12.13;;;7.00;;
78308;SDS011;67566;42.022;21.356;2023-07-29T05:06:07;10.02;;;6.70;;
78308;SDS011;67566;42.022;21.356;2023-07-29T05:08:33;10.25;;;6.82;;
78308;SDS011;67566;42.022;21.356;2023-07-29T05:10:58;13.98;;;8.13;;
78308;SDS011;67566;42.022;21.356;2023-07-29T05:13:24;12.48;;;7.80;;
78308;SDS011;67566;42.022;21.356;2023-07-29T05:15:50;11.43;;;7.47;;
78308;SDS011;67566;42.022;21.356;2023-07-29T05:18:16;11.45;;;7.65;;
78308;SDS011;67566;42.022;21.356;2023-07-29T05:20:42;12.18;;;7.28;;
78308;SDS011;67566;42.022;21.356;2023-07-29T05:23:08;10.10;;;6.88;;
78308;SDS011;67566;42.022;21.356;2023-07-29T05:25:33;10.93;;;7.82;;
78308;SDS011;67566;42.022;21.356;2023-07-29T05:28:02;13.25;;;7.85;;
78308;SDS011;67566;42.022;21.356;2023-07-29T05:30:28;13.48;;;7.80;;
78308;SDS011;67566;42.022;21.356;2023-07-29T05:32:56;9.68;;;6.88;;
78308;SDS011;67566;42.022;21.356;2023-07-29T05:35:22;13.88;;;7.50;;
78308;SDS011;67566;42.022;21.356;2023-07-29T05:37:48;11.32;;;7.35;;
78308;SDS011;67566;42.022;21.356;2023-07-29T05:40:14;9.23;;;7.03;;
78308;SDS011;67566;42.022;21.356;2023-07-29T05:42:39;8.57;;;6.28;;
78308;SDS011;67566;42.022;21.356;2023-07-29T05:45:05;8.25;;;6.40;;
78308;SDS011;67566;42.022;21.356;2023-07-29T05:47:31;8.43;;;5.35;;
78308;SDS011;67566;42.022;21.356;2023-07-29T05:49:56;9.02;;;6.07;;
78308;SDS011;67566;42.022;21.356;2023-07-29T05:52:22;9.20;;;5.82;;
78308;SDS011;67566;42.022;21.356;2023-07-29T05:54:47;9.63;;;5.25;;
78308;SDS011;67566;42.022;21.356;2023-07-29T05:57:13;7.72;;;5.57;;
78308;SDS011;67566;42.022;21.356;2023-07-29T05:59:38;7.57;;;5.47;;
78308;SDS011;67566;42.022;21.356;2023-07-29T06:02:04;10.52;;;5.85;;
78308;SDS011;67566;42.022;21.356;2023-07-29T06:04:30;8.57;;;5.22;;
78308;SDS011;67566;42.022;21.356;2023-07-29T06:06:55;8.52;;;4.65;;
78308;SDS011;67566;42.022;21.356;2023-07-29T06:09:21;6.68;;;4.68;;
78308;SDS011;67566;42.022;21.356;2023-07-29T06:11:47;6.88;;;5.28;;
78308;SDS011;67566;42.022;21.356;2023-07-29T06:14:13;7.13;;;4.95;;
78308;SDS011;67566;42.022;21.356;2023-07-29T06:16:38;6.82;;;4.50;;
78308;SDS011;67566;42.022;21.356;2023-07-29T06:19:04;8.25;;;4.45;;
78308;SDS011;67566;42.022;21.356;2023-07-29T06:21:30;6.30;;;4.53;;
78308;SDS011;67566;42.022;21.356;2023-07-29T06:23:55;6.65;;;5.35;;
78308;SDS011;67566;42.022;21.356;2023-07-29T06:26:21;7.07;;;4.70;;
78308;SDS011;67566;42.022;21.356;2023-07-29T06:28:47;8.57;;;5.65;;
78308;SDS011;67566;42.022;21.356;2023-07-29T06:31:12;8.35;;;5.05;;
78308;SDS011;67566;42.022;21.356;2023-07-29T06:33:38;6.93;;;4.80;;
78308;SDS011;67566;42.022;21.356;2023-07-29T06:36:06;7.97;;;4.95;;
78308;SDS011;67566;42.022;21.356;2023-07-29T06:38:32;7.88;;;5.10;;
78308;SDS011;67566;42.022;21.356;2023-07-29T06:40:57;7.18;;;5.22;;
78308;SDS011;67566;42.022;21.356;2023-07-29T06:43:23;14.32;;;5.00;;
78308;SDS011;67566;42.022;21.356;2023-07-29T06:45:48;9.00;;;5.28;;
78308;SDS011;67566;42.022;21.356;2023-07-29T06:48:14;6.55;;;4.25;;
78308;SDS011;67566;42.022;21.356;2023-07-29T06:50:39;7.25;;;4.97;;
78308;SDS011;67566;42.022;21.356;2023-07-29T06:53:05;7.05;;;4.85;;
78308;SDS011;67566;42.022;21.356;2023-07-29T06:55:31;5.15;;;4.32;;
78308;SDS011;67566;42.022;21.356;2023-07-29T06:57:56;6.88;;;4.90;;
78308;SDS011;67566;42.022;21.356;2023-07-29T07:00:22;6.30;;;4.60;;
78308;SDS011;67566;42.022;21.356;2023-07-29T07:02:47;7.00;;;4.70;;
78308;SDS011;67566;42.022;21.356;2023-07-29T07:05:13;8.25;;;4.90;;
78308;SDS011;67566;42.022;21.356;2023-07-29T07:07:39;11.80;;;5.15;;
78308;SDS011;67566;42.022;21.356;2023-07-29T07:10:04;11.10;;;5.40;;
78308;SDS011;67566;42.022;21.356;2023-07-29T07:12:30;6.05;;;4.72;;
78308;SDS011;67566;42.022;21.356;2023-07-29T07:14:55;5.50;;;4.40;;
78308;SDS011;67566;42.022;21.356;2023-07-29T07:17:21;9.02;;;4.47;;
78308;SDS011;67566;42.022;21.356;2023-07-29T07:19:46;7.95;;;4.00;;
78308;SDS011;67566;42.022;21.356;2023-07-29T07:22:12;14.07;;;5.05;;
78308;SDS011;67566;42.022;21.356;2023-07-29T07:24:37;6.05;;;4.20;;
78308;SDS011;67566;42.022;21.356;2023-07-29T07:27:03;7.53;;;5.03;;
78308;SDS011;67566;42.022;21.356;2023-07-29T07:29:29;6.60;;;4.68;;
78308;SDS011;67566;42.022;21.356;2023-07-29T07:31:56;8.70;;;5.05;;
78308;SDS011;67566;42.022;21.356;2023-07-29T07:34:21;8.63;;;4.43;;
78308;SDS011;67566;42.022;21.356;2023-07-29T07:36:47;6.78;;;4.70;;
78308;SDS011;67566;42.022;21.356;2023-07-29T07:39:13;6.80;;;4.28;;
78308;SDS011;67566;42.022;21.356;2023-07-29T07:41:39;7.80;;;4.85;;
78308;SDS011;67566;42.022;21.356;2023-07-29T07:44:05;8.20;;;4.65;;
78308;SDS011;67566;42.022;21.356;2023-07-29T07:46:30;9.50;;;5.03;;
78308;SDS011;67566;42.022;21.356;2023-07-29T07:48:55;6.88;;;4.38;;
78308;SDS011;67566;42.022;21.356;2023-07-29T07:51:21;8.52;;;3.88;;
78308;SDS011;67566;42.022;21.356;2023-07-29T07:53:46;8.57;;;4.50;;
78308;SDS011;67566;42.022;21.356;2023-07-29T07:56:12;6.15;;;3.97;;
78308;SDS011;67566;42.022;21.356;2023-07-29T07:58:38;6.18;;;4.68;;
78308;SDS011;67566;42.022;21.356;2023-07-29T08:01:04;6.10;;;4.15;;
78308;SDS011;67566;42.022;21.356;2023-07-29T08:03:34;6.85;;;4.55;;
78308;SDS011;67566;42.022;21.356;2023-07-29T08:06:00;7.80;;;4.53;;
78308;SDS011;67566;42.022;21.356;2023-07-29T08:08:26;5.30;;;4.13;;
78308;SDS011;67566;42.022;21.356;2023-07-29T08:10:53;8.25;;;4.13;;
78308;SDS011;67566;42.022;21.356;2023-07-29T08:13:19;6.05;;;4.32;;
78308;SDS011;67566;42.022;21.356;2023-07-29T08:15:49;5.88;;;4.35;;
78308;SDS011;67566;42.022;21.356;2023-07-29T08:18:16;8.73;;;4.35;;
78308;SDS011;67566;42.022;21.356;2023-07-29T08:20:52;6.72;;;4.18;;
78308;SDS011;67566;42.022;21.356;2023-07-29T08:23:23;10.57;;;4.20;;
78308;SDS011;67566;42.022;21.356;2023-07-29T08:25:51;9.60;;;4.18;;
78308;SDS011;67566;42.022;21.356;2023-07-29T08:28:17;6.22;;;4.00;;
78308;SDS011;67566;42.022;21.356;2023-07-29T08:30:43;7.90;;;3.92;;
78308;SDS011;67566;42.022;21.356;2023-07-29T08:33:08;5.60;;;3.90;;
78308;SDS011;67566;42.022;21.356;2023-07-29T08:35:34;5.35;;;3.58;;
78308;SDS011;67566;42.022;21.356;2023-07-29T08:37:59;9.65;;;4.60;;
78308;SDS011;67566;42.022;21.356;2023-07-29T08:40:26;8.43;;;4.38;;
78308;SDS011;67566;42.022;21.356;2023-07-29T08:42:54;6.22;;;3.78;;
78308;SDS011;67566;42.022;21.356;2023-07-29T08:45:22;5.13;;;3.17;;
78308;SDS011;67566;42.022;21.356;2023-07-29T08:47:49;6.13;;;3.90;;
78308;SDS011;67566;42.022;21.356;2023-07-29T08:50:19;8.27;;;3.50;;
78308;SDS011;67566;42.022;21.356;2023-07-29T08:52:45;6.32;;;3.60;;
78308;SDS011;67566;42.022;21.356;2023-07-29T08:55:12;5.20;;;3.92;;
78308;SDS011;67566;42.022;21.356;2023-07-29T08:57:37;5.95;;;3.80;;
78308;SDS011;67566;42.022;21.356;2023-07-29T09:00:03;5.57;;;3.50;;
78308;SDS011;67566;42.022;21.356;2023-07-29T09:02:29;5.32;;;3.63;;
78308;SDS011;67566;42.022;21.356;2023-07-29T09:04:54;7.93;;;3.78;;
78308;SDS011;67566;42.022;21.356;2023-07-29T09:07:20;6.07;;;4.15;;
78308;SDS011;67566;42.022;21.356;2023-07-29T09:09:46;5.47;;;3.55;;
78308;SDS011;67566;42.022;21.356;2023-07-29T09:12:11;5.80;;;3.80;;
78308;SDS011;67566;42.022;21.356;2023-07-29T09:14:37;5.63;;;3.63;;
78308;SDS011;67566;42.022;21.356;2023-07-29T09:17:02;7.13;;;3.92;;
78308;SDS011;67566;42.022;21.356;2023-07-29T09:19:32;5.82;;;4.30;;
78308;SDS011;67566;42.022;21.356;2023-07-29T09:21:58;7.15;;;4.55;;
78308;SDS011;67566;42.022;21.356;2023-07-29T09:24:24;4.82;;;3.92;;
78308;SDS011;67566;42.022;21.356;2023-07-29T09:26:50;6.88;;;4.60;;
78308;SDS011;67566;42.022;21.356;2023-07-29T09:29:21;5.40;;;4.15;;
78308;SDS011;67566;42.022;21.356;2023-07-29T09:31:48;6.07;;;3.97;;
78308;SDS011;67566;42.022;21.356;2023-07-29T09:34:14;4.95;;;3.85;;
78308;SDS011;67566;42.022;21.356;2023-07-29T09:36:41;7.07;;;4.22;;
78308;SDS011;67566;42.022;21.356;2023-07-29T09:39:10;8.70;;;4.57;;
78308;SDS011;67566;42.022;21.356;2023-07-29T09:41:36;5.72;;;4.40;;
78308;SDS011;67566;42.022;21.356;2023-07-29T09:44:02;6.72;;;4.78;;
78308;SDS011;67566;42.022;21.356;2023-07-29T09:46:33;8.25;;;4.90;;
78308;SDS011;67566;42.022;21.356;2023-07-29T09:49:01;5.82;;;4.30;;
78308;SDS011;67566;42.022;21.356;2023-07-29T09:51:28;7.32;;;4.63;;
78308;SDS011;67566;42.022;21.356;2023-07-29T09:53:53;8.65;;;4.00;;
78308;SDS011;67566;42.022;21.356;2023-07-29T09:56:23;7.53;;;4.00;;
78308;SDS011;67566;42.022;21.356;2023-07-29T09:58:51;6.47;;;3.95;;
78308;SDS011;67566;42.022;21.356;2023-07-29T10:01:16;7.53;;;4.00;;
78308;SDS011;67566;42.022;21.356;2023-07-29T10:03:43;6.03;;;3.70;;
78308;SDS011;67566;42.022;21.356;2023-07-29T10:06:09;7.93;;;4.68;;
78308;SDS011;67566;42.022;21.356;2023-07-29T10:08:36;5.22;;;3.80;;
78308;SDS011;67566;42.022;21.356;2023-07-29T10:11:08;5.68;;;4.18;;
78308;SDS011;67566;42.022;21.356;2023-07-29T10:13:35;5.22;;;3.72;;
78308;SDS011;67566;42.022;21.356;2023-07-29T10:16:01;8.13;;;4.18;;
78308;SDS011;67566;42.022;21.356;2023-07-29T10:18:28;5.85;;;4.45;;
78308;SDS011;67566;42.022;21.356;2023-07-29T10:20:54;7.32;;;4.40;;
78308;SDS011;67566;42.022;21.356;2023-07-29T10:23:22;6.75;;;4.75;;
78308;SDS011;67566;42.022;21.356;2023-07-29T10:25:53;6.63;;;4.05;;
78308;SDS011;67566;42.022;21.356;2023-07-29T10:28:26;7.57;;;4.20;;
78308;SDS011;67566;42.022;21.356;2023-07-29T10:30:54;5.10;;;4.10;;
78308;SDS011;67566;42.022;21.356;2023-07-29T10:33:22;7.47;;;4.60;;
78308;SDS011;67566;42.022;21.356;2023-07-29T10:35:47;8.27;;;4.68;;
78308;SDS011;67566;42.022;21.356;2023-07-29T10:38:14;8.52;;;4.43;;
78308;SDS011;67566;42.022;21.356;2023-07-29T10:40:45;7.93;;;4.32;;
78308;SDS011;67566;42.022;21.356;2023-07-29T10:43:15;6.65;;;4.63;;
78308;SDS011;67566;42.022;21.356;2023-07-29T10:45:44;8.00;;;4.72;;
78308;SDS011;67566;42.022;21.356;2023-07-29T10:48:10;6.75;;;4.97;;
78308;SDS011;67566;42.022;21.356;2023-07-29T10:50:37;6.85;;;3.95;;
78308;SDS011;67566;42.022;21.356;2023-07-29T10:53:03;7.05;;;4.90;;
78308;SDS011;67566;42.022;21.356;2023-07-29T10:55:33;8.30;;;4.45;;
78308;SDS011;67566;42.022;21.356;2023-07-29T10:58:05;6.82;;;4.45;;
78308;SDS011;67566;42.022;21.356;2023-07-29T11:00:32;5.88;;;4.95;;
78308;SDS011;67566;42.022;21.356;2023-07-29T11:02:59;5.50;;;4.43;;
78308;SDS011;67566;42.022;21.356;2023-07-29T11:05:26;8.32;;;4.10;;
78308;SDS011;67566;42.022;21.356;2023-07-29T11:08:01;7.15;;;4.55;;
78308;SDS011;67566;42.022;21.356;2023-07-29T11:11:04;8.48;;;4.28;;
78308;SDS011;67566;42.022;21.356;2023-07-29T11:13:32;5.97;;;4.28;;
78308;SDS011;67566;42.022;21.356;2023-07-29T11:16:00;5.28;;;4.13;;
78308;SDS011;67566;42.022;21.356;2023-07-29T11:18:33;5.05;;;4.03;;
78308;SDS011;67566;42.022;21.356;2023-07-29T11:21:01;7.43;;;4.70;;
78308;SDS011;67566;42.022;21.356;2023-07-29T11:23:29;7.43;;;4.18;;
78308;SDS011;67566;42.022;21.356;2023-07-29T11:25:59;9.57;;;4.78;;
78308;SDS011;67566;42.022;21.356;2023-07-29T11:28:25;6.93;;;4.35;;
78308;SDS011;67566;42.022;21.356;2023-07-29T11:30:51;6.75;;;3.97;;
78308;SDS011;67566;42.022;21.356;2023-07-29T11:33:26;6.03;;;4.10;;
78308;SDS011;67566;42.022;21.356;2023-07-29T11:38:45;6.40;;;3.95;;
78308;SDS011;67566;42.022;21.356;2023-07-29T11:41:19;6.00;;;4.45;;
78308;SDS011;67566;42.022;21.356;2023-07-29T11:44:37;5.65;;;3.97;;
78308;SDS011;67566;42.022;21.356;2023-07-29T11:47:06;7.93;;;4.20;;
78308;SDS011;67566;42.022;21.356;2023-07-29T11:49:36;8.95;;;4.68;;
78308;SDS011;67566;42.022;21.356;2023-07-29T11:52:04;6.35;;;4.50;;
78308;SDS011;67566;42.022;21.356;2023-07-29T11:54:32;5.82;;;4.30;;
78308;SDS011;67566;42.022;21.356;2023-07-29T11:57:00;6.65;;;4.45;;
78308;SDS011;67566;42.022;21.356;2023-07-29T11:59:27;12.00;;;5.63;;
78308;SDS011;67566;42.022;21.356;2023-07-29T12:01:53;6.00;;;3.95;;
78308;SDS011;67566;42.022;21.356;2023-07-29T12:04:22;6.28;;;4.43;;
78308;SDS011;67566;42.022;21.356;2023-07-29T12:06:48;8.52;;;4.30;;
78308;SDS011;67566;42.022;21.356;2023-07-29T12:09:16;9.75;;;5.03;;
78308;SDS011;67566;42.022;21.356;2023-07-29T12:11:42;7.45;;;4.00;;
78308;SDS011;67566;42.022;21.356;2023-07-29T12:14:12;6.05;;;3.70;;
78308;SDS011;67566;42.022;21.356;2023-07-29T12:16:41;7.85;;;4.55;;
78308;SDS011;67566;42.022;21.356;2023-07-29T12:19:07;5.38;;;3.70;;
78308;SDS011;67566;42.022;21.356;2023-07-29T12:21:36;6.10;;;3.65;;
78308;SDS011;67566;42.022;21.356;2023-07-29T12:24:03;7.15;;;4.32;;
78308;SDS011;67566;42.022;21.356;2023-07-29T12:26:31;7.20;;;4.05;;
78308;SDS011;67566;42.022;21.356;2023-07-29T12:29:10;5.20;;;4.30;;
78308;SDS011;67566;42.022;21.356;2023-07-29T12:31:45;6.22;;;4.47;;
78308;SDS011;67566;42.022;21.356;2023-07-29T12:34:19;6.15;;;4.25;;
78308;SDS011;67566;42.022;21.356;2023-07-29T12:36:50;5.72;;;4.45;;
78308;SDS011;67566;42.022;21.356;2023-07-29T12:39:17;5.22;;;3.95;;
78308;SDS011;67566;42.022;21.356;2023-07-29T12:41:44;6.65;;;4.28;;
78308;SDS011;67566;42.022;21.356;2023-07-29T12:44:09;7.00;;;3.90;;
78308;SDS011;67566;42.022;21.356;2023-07-29T12:46:35;6.50;;;4.45;;
78308;SDS011;67566;42.022;21.356;2023-07-29T12:49:00;7.07;;;4.47;;
78308;SDS011;67566;42.022;21.356;2023-07-29T12:51:31;5.32;;;3.80;;
78308;SDS011;67566;42.022;21.356;2023-07-29T12:53:57;5.28;;;4.05;;
78308;SDS011;67566;42.022;21.356;2023-07-29T12:56:22;4.45;;;3.78;;
78308;SDS011;67566;42.022;21.356;2023-07-29T12:58:48;7.88;;;4.43;;
78308;SDS011;67566;42.022;21.356;2023-07-29T13:01:13;6.35;;;4.75;;
78308;SDS011;67566;42.022;21.356;2023-07-29T13:03:42;10.65;;;4.35;;
78308;SDS011;67566;42.022;21.356;2023-07-29T13:06:08;6.47;;;4.40;;
78308;SDS011;67566;42.022;21.356;2023-07-29T13:08:34;6.10;;;4.10;;
78308;SDS011;67566;42.022;21.356;2023-07-29T13:10:59;7.05;;;3.95;;
78308;SDS011;67566;42.022;21.356;2023-07-29T13:13:25;5.22;;;3.80;;
78308;SDS011;67566;42.022;21.356;2023-07-29T13:15:50;7.10;;;3.72;;
78308;SDS011;67566;42.022;21.356;2023-07-29T13:18:16;9.10;;;4.40;;
78308;SDS011;67566;42.022;21.356;2023-07-29T13:20:41;7.72;;;4.15;;
78308;SDS011;67566;42.022;21.356;2023-07-29T13:23:07;5.43;;;3.75;;
78308;SDS011;67566;42.022;21.356;2023-07-29T13:25:32;5.18;;;4.13;;
78308;SDS011;67566;42.022;21.356;2023-07-29T13:27:58;7.68;;;4.15;;
78308;SDS011;67566;42.022;21.356;2023-07-29T13:30:23;6.38;;;3.70;;
78308;SDS011;67566;42.022;21.356;2023-07-29T13:32:49;5.05;;;3.88;;
78308;SDS011;67566;42.022;21.356;2023-07-29T13:35:14;5.20;;;3.90;;
78308;SDS011;67566;42.022;21.356;2023-07-29T13:37:40;5.65;;;4.07;;
78308;SDS011;67566;42.022;21.356;2023-07-29T13:40:05;6.22;;;3.85;;
78308;SDS011;67566;42.022;21.356;2023-07-29T13:42:32;5.18;;;3.88;;
78308;SDS011;67566;42.022;21.356;2023-07-29T13:45:06;5.65;;;4.35;;
78308;SDS011;67566;42.022;21.356;2023-07-29T13:47:31;6.53;;;4.28;;
78308;SDS011;67566;42.022;21.356;2023-07-29T13:49:57;5.45;;;3.92;;
78308;SDS011;67566;42.022;21.356;2023-07-29T13:52:22;7.88;;;4.07;;
78308;SDS011;67566;42.022;21.356;2023-07-29T13:54:48;5.38;;;3.75;;
78308;SDS011;67566;42.022;21.356;2023-07-29T13:57:13;7.40;;;4.00;;
78308;SDS011;67566;42.022;21.356;2023-07-29T13:59:39;5.28;;;4.10;;
78308;SDS011;67566;42.022;21.356;2023-07-29T14:02:05;4.80;;;3.90;;
78308;SDS011;67566;42.022;21.356;2023-07-29T14:04:31;8.43;;;3.90;;
78308;SDS011;67566;42.022;21.356;2023-07-29T14:06:57;7.05;;;4.32;;
78308;SDS011;67566;42.022;21.356;2023-07-29T14:09:23;5.53;;;3.80;;
78308;SDS011;67566;42.022;21.356;2023-07-29T14:11:48;5.72;;;4.00;;
78308;SDS011;67566;42.022;21.356;2023-07-29T14:14:14;13.48;;;4.78;;
78308;SDS011;67566;42.022;21.356;2023-07-29T14:16:40;7.03;;;4.75;;
78308;SDS011;67566;42.022;21.356;2023-07-29T14:19:05;5.55;;;3.90;;
78308;SDS011;67566;42.022;21.356;2023-07-29T14:21:31;5.15;;;3.97;;
78308;SDS011;67566;42.022;21.356;2023-07-29T14:23:56;5.72;;;3.90;;
78308;SDS011;67566;42.022;21.356;2023-07-29T14:26:22;5.00;;;4.15;;
78308;SDS011;67566;42.022;21.356;2023-07-29T14:28:47;6.18;;;4.47;;
78308;SDS011;67566;42.022;21.356;2023-07-29T14:31:14;5.57;;;3.58;;
78308;SDS011;67566;42.022;21.356;2023-07-29T14:33:41;6.80;;;4.00;;
78308;SDS011;67566;42.022;21.356;2023-07-29T14:36:07;5.38;;;4.10;;
78308;SDS011;67566;42.022;21.356;2023-07-29T14:38:33;6.97;;;4.10;;
78308;SDS011;67566;42.022;21.356;2023-07-29T14:40:58;5.60;;;3.80;;
78308;SDS011;67566;42.022;21.356;2023-07-29T14:43:25;4.88;;;3.60;;